createdAt,value
2017-05-02T00:00:18.504Z,10.70
2017-05-02T00:02:46.371Z,10.70
2017-05-02T00:05:13.767Z,10.70
2017-05-02T00:07:40.884Z,10.80
2017-05-02T00:10:08.175Z,10.70
2017-05-02T00:12:36.755Z,10.60
2017-05-02T00:15:03.955Z,10.60
2017-05-02T00:17:31.146Z,10.60
2017-05-02T00:20:01.350Z,10.60
2017-05-02T00:22:28.973Z,10.50
2017-05-02T00:24:56.045Z,10.50
2017-05-02T00:27:24.173Z,10.50
2017-05-02T00:29:51.212Z,10.50
2017-05-02T00:32:18.199Z,10.60
2017-05-02T00:34:45.599Z,10.40
2017-05-02T00:37:12.570Z,10.40
2017-05-02T00:39:39.718Z,10.50
2017-05-02T00:42:07.429Z,10.50
2017-05-02T00:44:34.667Z,10.60
2017-05-02T00:47:01.853Z,10.60
2017-05-02T00:49:29.969Z,10.50
2017-05-02T00:51:57.025Z,10.60
2017-05-02T00:54:24.025Z,10.50
2017-05-02T00:56:51.530Z,10.50
2017-05-02T00:59:18.840Z,10.40
2017-05-02T01:01:46.108Z,10.40
2017-05-02T01:04:13.796Z,10.40
2017-05-02T01:06:42.934Z,10.50
2017-05-02T01:09:11.461Z,10.50
2017-05-02T01:11:39.080Z,10.50
2017-05-02T01:14:06.293Z,10.50
2017-05-02T01:16:33.523Z,10.60
2017-05-02T01:19:01.296Z,10.50
2017-05-02T01:21:28.461Z,10.40
2017-05-02T01:23:56.510Z,10.40
2017-05-02T01:26:24.144Z,10.40
2017-05-02T01:28:51.204Z,10.40
2017-05-02T01:31:18.156Z,10.40
2017-05-02T01:33:45.504Z,10.30
2017-05-02T01:36:12.546Z,10.30
2017-05-02T01:38:39.553Z,10.40
2017-05-02T01:41:07.672Z,10.40
2017-05-02T01:43:34.669Z,10.40
2017-05-02T01:46:02.499Z,10.30
2017-05-02T01:48:29.853Z,10.20
2017-05-02T01:50:56.832Z,10.20
2017-05-02T01:53:23.823Z,10.20
2017-05-02T01:55:51.201Z,10.30
2017-05-02T01:58:18.209Z,10.20
2017-05-02T02:00:45.927Z,10.20
2017-05-02T02:03:13.375Z,10.30
2017-05-02T02:05:40.369Z,10.30
2017-05-02T02:08:08.409Z,10.20
2017-05-02T02:10:35.871Z,10.20
2017-05-02T02:13:02.867Z,10.10
2017-05-02T02:15:30.659Z,10.00
2017-05-02T02:17:57.964Z,10.10
2017-05-02T02:20:25.654Z,10.10
2017-05-02T02:22:52.636Z,10.20
2017-05-02T02:25:19.964Z,10.20
2017-05-02T02:27:46.948Z,10.20
2017-05-02T02:30:13.975Z,10.20
2017-05-02T02:32:41.409Z,10.20
2017-05-02T02:35:08.491Z,10.20
2017-05-02T02:37:35.492Z,10.10
2017-05-02T02:40:02.983Z,10.10
2017-05-02T02:42:29.955Z,10.10
2017-05-02T02:44:56.906Z,10.10
2017-05-02T02:47:24.238Z,10.20
2017-05-02T02:49:51.213Z,10.10
2017-05-02T02:52:18.944Z,10.00
2017-05-02T02:54:46.292Z,10.00
2017-05-02T02:57:13.267Z,10.00
2017-05-02T02:59:40.241Z,10.00
2017-05-02T03:02:08.332Z,10.00
2017-05-02T03:04:35.311Z,10.00
2017-05-02T03:07:02.300Z,10.10
2017-05-02T03:09:30.439Z,10.00
2017-05-02T03:11:57.407Z,10.10
2017-05-02T03:14:24.410Z,10.10
2017-05-02T03:16:51.877Z,10.20
2017-05-02T03:19:18.876Z,10.20
2017-05-02T03:21:45.864Z,10.00
2017-05-02T03:24:13.257Z,10.00
2017-05-02T03:26:40.271Z,10.00
2017-05-02T03:29:07.235Z,10.00
2017-05-02T03:31:34.624Z,10.10
2017-05-02T03:34:02.360Z,10.10
2017-05-02T03:36:29.326Z,10.00
2017-05-02T03:38:56.848Z,10.10
2017-05-02T03:41:23.863Z,10.10
2017-05-02T03:43:50.859Z,10.20
2017-05-02T03:46:18.182Z,10.10
2017-05-02T03:48:45.174Z,10.10
2017-05-02T03:51:12.160Z,10.10
2017-05-02T03:53:39.530Z,10.10
2017-05-02T03:56:06.500Z,10.20
2017-05-02T03:58:33.524Z,10.10
2017-05-02T04:01:00.881Z,10.10
2017-05-02T04:03:27.862Z,10.10
2017-05-02T04:05:54.849Z,10.10
2017-05-02T04:08:22.918Z,10.10
2017-05-02T04:10:50.620Z,10.00
2017-05-02T04:13:17.584Z,10.00
2017-05-02T04:15:45.024Z,10.00
2017-05-02T04:18:12.072Z,10.00
2017-05-02T04:20:39.048Z,10.00
2017-05-02T04:23:06.477Z,10.00
2017-05-02T04:25:33.468Z,10.10
2017-05-02T04:28:00.449Z,10.10
2017-05-02T04:30:27.817Z,10.10
2017-05-02T04:32:54.791Z,10.20
2017-05-02T04:35:21.780Z,10.20
2017-05-02T04:37:49.173Z,10.20
2017-05-02T04:40:16.156Z,10.00
2017-05-02T04:42:43.151Z,10.10
2017-05-02T04:45:10.622Z,10.00
2017-05-02T04:47:37.652Z,10.00
2017-05-02T04:50:04.708Z,10.10
2017-05-02T04:52:32.083Z,10.00
2017-05-02T04:54:59.091Z,10.20
2017-05-02T04:57:26.120Z,10.20
2017-05-02T04:59:54.245Z,10.10
2017-05-02T05:02:21.290Z,10.20
2017-05-02T05:04:48.274Z,10.20
2017-05-02T05:07:16.321Z,10.20
2017-05-02T05:09:43.313Z,10.40
2017-05-02T05:12:10.300Z,10.40
2017-05-02T05:14:37.655Z,10.50
2017-05-02T05:17:05.628Z,10.40
2017-05-02T05:19:32.643Z,10.40
2017-05-02T05:22:00.016Z,10.40
2017-05-02T05:24:27.071Z,10.30
2017-05-02T05:26:54.107Z,10.30
2017-05-02T05:29:21.572Z,10.40
2017-05-02T05:31:49.593Z,10.20
2017-05-02T05:34:17.297Z,10.10
2017-05-02T05:36:44.669Z,10.20
2017-05-02T05:39:11.672Z,10.20
2017-05-02T05:41:38.640Z,10.10
2017-05-02T05:44:06.000Z,10.10
2017-05-02T05:46:40.063Z,10.10
2017-05-02T05:49:08.171Z,10.30
2017-05-02T05:51:35.157Z,10.30
2017-05-02T05:54:02.141Z,10.30
2017-05-02T05:56:29.507Z,10.30
2017-05-02T05:58:56.489Z,10.30
2017-05-02T06:01:23.479Z,10.30
2017-05-02T06:03:50.877Z,10.30
2017-05-02T06:06:17.851Z,10.10
2017-05-02T06:08:45.893Z,10.10
2017-05-02T06:11:13.908Z,10.30
2017-05-02T06:13:40.944Z,10.40
2017-05-02T06:16:08.653Z,10.40
2017-05-02T06:18:36.115Z,10.50
2017-05-02T06:21:03.120Z,10.60
2017-05-02T06:23:30.156Z,10.60
2017-05-02T06:25:57.585Z,10.70
2017-05-02T06:28:24.817Z,10.70
2017-05-02T06:30:59.481Z,10.70
2017-05-02T06:33:26.536Z,10.70
2017-05-02T06:35:54.249Z,10.70
2017-05-02T06:38:21.897Z,10.40
2017-05-02T06:40:49.024Z,10.50
2017-05-02T06:43:16.055Z,10.70
2017-05-02T06:45:44.156Z,10.70
2017-05-02T06:48:11.170Z,10.70
2017-05-02T06:50:38.173Z,10.90
2017-05-02T06:53:05.608Z,10.90
2017-05-02T06:55:32.637Z,10.90
2017-05-02T06:57:59.667Z,10.80
2017-05-02T07:00:27.779Z,10.70
2017-05-02T07:02:54.760Z,10.80
2017-05-02T07:05:22.496Z,10.90
2017-05-02T07:07:49.841Z,10.80
2017-05-02T07:10:16.836Z,10.80
2017-05-02T07:12:44.560Z,10.80
2017-05-02T07:15:12.012Z,11.10
2017-05-02T07:17:39.018Z,11.10
2017-05-02T07:20:06.003Z,11.30
2017-05-02T07:22:33.340Z,11.40
2017-05-02T07:25:00.353Z,11.60
2017-05-02T07:27:27.353Z,11.50
2017-05-02T07:29:54.672Z,11.50
2017-05-02T07:32:21.672Z,11.60
2017-05-02T07:34:49.402Z,11.60
2017-05-02T07:37:16.678Z,11.80
2017-05-02T07:39:44.385Z,11.80
2017-05-02T07:42:11.354Z,12.00
2017-05-02T07:44:38.801Z,12.00
2017-05-02T07:47:05.814Z,12.00
2017-05-02T07:49:32.791Z,12.20
2017-05-02T07:52:00.151Z,12.20
2017-05-02T07:54:34.123Z,12.30
2017-05-02T07:57:01.417Z,12.30
2017-05-02T07:59:28.404Z,12.40
2017-05-02T08:01:55.481Z,12.60
2017-05-02T08:04:22.812Z,12.60
2017-05-02T08:06:50.036Z,12.50
2017-05-02T08:09:17.761Z,12.50
2017-05-02T08:11:45.052Z,12.70
2017-05-02T08:14:12.765Z,12.80
2017-05-02T08:16:39.752Z,12.80
2017-05-02T08:19:07.976Z,12.90
2017-05-02T08:21:34.965Z,13.10
2017-05-02T08:24:01.947Z,12.90
2017-05-02T08:26:29.327Z,13.00
2017-05-02T08:28:56.329Z,13.20
2017-05-02T08:31:23.316Z,13.20
2017-05-02T08:33:50.646Z,13.20
2017-05-02T08:36:17.708Z,13.10
2017-05-02T08:38:44.708Z,13.00
2017-05-02T08:41:12.100Z,13.10
2017-05-02T08:43:39.077Z,13.20
2017-05-02T08:46:06.037Z,13.30
2017-05-02T08:48:34.160Z,13.40
2017-05-02T08:51:01.135Z,13.40
2017-05-02T08:53:28.865Z,13.20
2017-05-02T08:55:56.221Z,13.30
2017-05-02T08:58:23.205Z,13.20
2017-05-02T09:00:50.931Z,13.30
2017-05-02T09:03:18.262Z,13.30
2017-05-02T09:05:45.292Z,13.50
2017-05-02T09:08:12.317Z,13.60
2017-05-02T09:10:39.732Z,13.70
2017-05-02T09:13:06.745Z,13.90
2017-05-02T09:15:33.751Z,13.90
2017-05-02T09:18:01.152Z,14.30
2017-05-02T09:20:28.932Z,14.30
2017-05-02T09:22:55.947Z,14.10
2017-05-02T09:25:23.283Z,14.20
2017-05-02T09:27:50.277Z,14.30
2017-05-02T09:30:17.293Z,14.50
2017-05-02T09:32:44.656Z,14.70
2017-05-02T09:35:11.657Z,14.70
2017-05-02T09:37:39.373Z,14.80
2017-05-02T09:40:06.814Z,14.90
2017-05-02T09:42:33.805Z,14.90
2017-05-02T09:45:01.636Z,14.90
2017-05-02T09:47:28.976Z,15.10
2017-05-02T09:49:56.208Z,15.10
2017-05-02T09:52:23.211Z,14.80
2017-05-02T09:54:51.265Z,14.50
2017-05-02T09:57:18.281Z,14.50
2017-05-02T09:59:45.284Z,14.60
2017-05-02T10:02:12.865Z,14.60
2017-05-02T10:04:39.831Z,14.80
2017-05-02T10:07:06.816Z,15.00
2017-05-02T10:09:34.961Z,15.10
2017-05-02T10:12:01.972Z,14.90
2017-05-02T10:14:28.975Z,15.10
2017-05-02T10:16:57.730Z,15.10
2017-05-02T10:19:24.711Z,15.40
2017-05-02T10:21:52.430Z,15.40
2017-05-02T10:24:19.801Z,15.60
2017-05-02T10:26:46.823Z,15.60
2017-05-02T10:29:13.830Z,15.60
2017-05-02T10:31:41.128Z,15.60
2017-05-02T10:34:08.146Z,15.50
2017-05-02T10:36:35.253Z,15.70
2017-05-02T10:39:02.563Z,15.70
2017-05-02T10:41:29.528Z,15.90
2017-05-02T10:43:56.525Z,16.20
2017-05-02T10:46:30.780Z,15.90
2017-05-02T10:48:57.761Z,16.10
2017-05-02T10:51:24.777Z,16.00
2017-05-02T10:53:52.070Z,16.10
2017-05-02T10:56:19.064Z,16.20
2017-05-02T10:58:46.037Z,16.30
2017-05-02T11:01:13.467Z,16.60
2017-05-02T11:03:40.483Z,16.40
2017-05-02T11:06:07.714Z,16.30
2017-05-02T11:08:35.759Z,16.20
2017-05-02T11:11:02.980Z,16.20
2017-05-02T11:13:30.403Z,16.20
2017-05-02T11:15:57.879Z,16.20
2017-05-02T11:18:24.859Z,16.20
2017-05-02T11:20:52.700Z,16.20
2017-05-02T11:23:20.948Z,16.20
2017-05-02T11:25:48.818Z,16.30
2017-05-02T11:28:16.433Z,16.30
2017-05-02T11:30:43.934Z,16.30
2017-05-02T11:33:11.744Z,16.20
2017-05-02T11:35:38.738Z,16.10
2017-05-02T11:38:06.261Z,16.10
2017-05-02T11:40:33.436Z,16.20
2017-05-02T11:43:00.694Z,16.00
2017-05-02T11:45:28.186Z,16.00
2017-05-02T11:47:55.497Z,16.00
2017-05-02T11:50:22.711Z,15.50
2017-05-02T11:52:50.642Z,15.40
2017-05-02T11:55:18.406Z,15.50
2017-05-02T11:57:45.436Z,15.40
2017-05-02T12:00:13.048Z,15.60
2017-05-02T12:02:40.141Z,15.30
2017-05-02T12:05:07.897Z,15.30
2017-05-02T12:07:35.225Z,15.30
2017-05-02T12:10:02.229Z,15.40
2017-05-02T12:12:29.228Z,15.20
2017-05-02T12:14:56.552Z,15.00
2017-05-02T12:17:23.526Z,14.70
2017-05-02T12:19:50.520Z,14.70
2017-05-02T12:22:18.743Z,14.50
2017-05-02T12:24:46.298Z,14.90
2017-05-02T12:27:13.468Z,14.90
2017-05-02T12:29:40.800Z,15.00
2017-05-02T12:32:07.805Z,15.10
2017-05-02T12:34:34.801Z,15.10
2017-05-02T12:37:02.224Z,14.90
2017-05-02T12:39:29.289Z,14.90
2017-05-02T12:41:57.063Z,14.80
2017-05-02T12:44:24.385Z,15.00
2017-05-02T12:46:51.637Z,14.80
2017-05-02T12:49:18.637Z,14.80
2017-05-02T12:51:46.765Z,14.60
2017-05-02T12:54:13.754Z,14.40
2017-05-02T12:56:40.860Z,14.30
2017-05-02T12:59:08.220Z,14.30
2017-05-02T13:01:35.247Z,14.30
2017-05-02T13:04:02.241Z,14.20
2017-05-02T13:06:30.324Z,14.10
2017-05-02T13:08:58.048Z,14.10
2017-05-02T13:11:25.239Z,14.30
2017-05-02T13:13:53.016Z,14.30
2017-05-02T13:16:20.077Z,14.30
2017-05-02T13:18:47.097Z,14.20
2017-05-02T13:21:14.401Z,14.30
2017-05-02T13:23:41.480Z,14.30
2017-05-02T13:26:09.242Z,14.10
2017-05-02T13:28:37.357Z,14.20
2017-05-02T13:31:04.421Z,14.20
2017-05-02T13:33:31.450Z,13.90
2017-05-02T13:35:58.832Z,13.70
2017-05-02T13:38:26.601Z,13.70
2017-05-02T13:40:53.614Z,13.80
2017-05-02T13:43:20.997Z,13.60
2017-05-02T13:45:48.013Z,13.50
2017-05-02T13:48:15.012Z,13.40
2017-05-02T13:50:42.317Z,13.30
2017-05-02T13:53:09.270Z,13.20
2017-05-02T13:55:36.281Z,13.10
2017-05-02T13:58:03.752Z,13.10
2017-05-02T14:00:30.833Z,13.10
2017-05-02T14:02:57.827Z,13.10
2017-05-02T14:05:25.187Z,13.20
2017-05-02T14:07:52.204Z,13.40
2017-05-02T14:10:19.288Z,13.40
2017-05-02T14:12:46.737Z,13.30
2017-05-02T14:15:13.749Z,13.20
2017-05-02T14:17:40.761Z,13.30
2017-05-02T14:20:08.186Z,13.30
2017-05-02T14:22:35.211Z,13.30
2017-05-02T14:25:02.224Z,13.20
2017-05-02T14:27:29.646Z,13.00
2017-05-02T14:29:56.675Z,12.90
2017-05-02T14:32:23.697Z,12.90
2017-05-02T14:34:51.070Z,12.90
2017-05-02T14:37:18.060Z,12.90
2017-05-02T14:39:45.065Z,12.80
2017-05-02T14:42:12.528Z,12.70
2017-05-02T14:44:40.317Z,12.50
2017-05-02T14:47:08.079Z,12.50
2017-05-02T14:49:35.406Z,12.30
2017-05-02T14:52:02.472Z,12.20
2017-05-02T14:54:29.448Z,12.20
2017-05-02T14:56:57.590Z,12.20
2017-05-02T14:59:24.631Z,12.30
2017-05-02T15:01:51.722Z,12.10
2017-05-02T15:04:19.230Z,12.10
2017-05-02T15:06:46.305Z,12.10
2017-05-02T15:09:13.301Z,12.10
2017-05-02T15:11:40.717Z,12.10
2017-05-02T15:14:07.838Z,11.90
2017-05-02T15:16:35.774Z,11.90
2017-05-02T15:19:03.384Z,11.90
2017-05-02T15:21:30.864Z,11.90
2017-05-02T15:23:57.941Z,12.00
2017-05-02T15:26:25.570Z,11.90
2017-05-02T15:28:52.684Z,11.70
2017-05-02T15:31:19.704Z,11.80
2017-05-02T15:33:47.062Z,11.60
2017-05-02T15:36:14.059Z,11.50
2017-05-02T15:38:41.056Z,11.60
2017-05-02T15:41:08.408Z,11.60
2017-05-02T15:43:35.400Z,11.50
2017-05-02T15:46:03.167Z,11.50
2017-05-02T15:48:30.603Z,11.60
2017-05-02T15:50:57.671Z,11.50
2017-05-02T15:53:24.670Z,11.50
2017-05-02T15:55:52.065Z,11.50
2017-05-02T15:58:19.079Z,11.50
2017-05-02T16:00:46.072Z,11.50
2017-05-02T16:03:14.310Z,11.20
2017-05-02T16:05:42.018Z,11.30
2017-05-02T16:08:09.025Z,11.40
2017-05-02T16:10:36.361Z,11.50
2017-05-02T16:13:03.389Z,11.60
2017-05-02T16:15:30.421Z,11.50
2017-05-02T16:17:57.816Z,11.50
2017-05-02T16:20:24.846Z,11.30
2017-05-02T16:22:51.836Z,11.30
2017-05-02T16:25:19.177Z,11.00
2017-05-02T16:27:46.160Z,11.00
2017-05-02T16:30:13.895Z,11.00
2017-05-02T16:32:41.344Z,11.00
2017-05-02T16:35:08.352Z,10.90
2017-05-02T16:37:35.429Z,10.90
2017-05-02T16:40:02.876Z,10.80
2017-05-02T16:42:29.942Z,10.70
2017-05-02T16:44:56.896Z,10.60
2017-05-02T16:47:24.341Z,10.70
2017-05-02T16:49:51.293Z,10.70
2017-05-02T16:52:18.284Z,10.50
2017-05-02T16:54:45.810Z,10.50
2017-05-02T16:57:12.807Z,10.50
2017-05-02T16:59:39.891Z,10.50
2017-05-02T17:02:07.239Z,10.40
2017-05-02T17:04:34.393Z,10.40
2017-05-02T17:07:01.382Z,10.40
2017-05-02T17:09:29.518Z,10.30
2017-05-02T17:11:56.508Z,10.20
2017-05-02T17:14:24.269Z,10.10
2017-05-02T17:16:59.580Z,10.20
2017-05-02T17:19:26.581Z,10.20
2017-05-02T17:21:53.633Z,10.20
2017-05-02T17:24:21.726Z,9.90
2017-05-02T17:26:49.786Z,10.00
2017-05-02T17:29:17.024Z,9.90
2017-05-02T17:31:44.405Z,9.90
2017-05-02T17:34:11.376Z,9.90
2017-05-02T17:36:38.412Z,9.90
2017-05-02T17:39:05.857Z,9.80
2017-05-02T17:41:32.861Z,9.70
2017-05-02T17:44:00.952Z,9.70
2017-05-02T17:46:28.353Z,9.70
2017-05-02T17:48:55.340Z,9.60
2017-05-02T17:51:23.193Z,9.50
2017-05-02T17:53:50.643Z,9.60
2017-05-02T17:56:17.712Z,9.50
2017-05-02T17:58:44.814Z,9.70
2017-05-02T18:01:12.273Z,9.70
2017-05-02T18:03:39.371Z,9.60
2017-05-02T18:06:07.185Z,9.60
2017-05-02T18:08:34.536Z,9.60
2017-05-02T18:11:01.508Z,9.60
2017-05-02T18:13:28.602Z,9.50
2017-05-02T18:15:56.676Z,9.40
2017-05-02T18:18:23.771Z,9.50
2017-05-02T18:20:50.893Z,9.50
2017-05-02T18:23:18.257Z,9.40
2017-05-02T18:25:45.311Z,9.30
2017-05-02T18:28:12.337Z,9.40
2017-05-02T18:30:39.746Z,9.30
2017-05-02T18:33:06.770Z,9.40
2017-05-02T18:35:33.776Z,9.40
2017-05-02T18:38:01.988Z,9.30
2017-05-02T18:40:29.052Z,9.30
2017-05-02T18:42:56.077Z,9.20
2017-05-02T18:45:23.412Z,9.20
2017-05-02T18:47:50.416Z,9.00
2017-05-02T18:50:17.594Z,9.10
2017-05-02T18:52:45.967Z,9.20
2017-05-02T18:55:13.010Z,9.40
2017-05-02T18:57:41.140Z,9.40
2017-05-02T19:00:08.785Z,9.40
2017-05-02T19:02:36.959Z,9.50
2017-05-02T19:05:04.496Z,9.10
2017-05-02T19:07:32.857Z,8.90
2017-05-02T19:10:00.197Z,9.00
2017-05-02T19:12:27.987Z,9.00
2017-05-02T19:14:55.597Z,9.10
2017-05-02T19:17:22.778Z,9.10
2017-05-02T19:19:50.452Z,9.10
2017-05-02T19:22:17.955Z,9.10
2017-05-02T19:24:45.914Z,9.10
2017-05-02T19:27:13.509Z,9.10
2017-05-02T19:29:41.111Z,9.10
2017-05-02T19:32:08.411Z,9.20
2017-05-02T19:34:35.522Z,9.10
2017-05-02T19:37:02.950Z,9.00
2017-05-02T19:39:30.223Z,9.10
2017-05-02T19:41:57.371Z,9.10
2017-05-02T19:44:24.886Z,9.20
2017-05-02T19:46:52.239Z,9.10
2017-05-02T19:49:19.424Z,9.00
2017-05-02T19:51:46.845Z,9.10
2017-05-02T19:54:13.913Z,9.10
2017-05-02T19:56:41.755Z,9.10
2017-05-02T19:59:09.228Z,9.10
2017-05-02T20:01:36.317Z,9.00
2017-05-02T20:04:03.415Z,8.90
2017-05-02T20:06:30.983Z,8.90
2017-05-02T20:08:58.168Z,8.90
2017-05-02T20:11:25.438Z,8.80
2017-05-02T20:13:52.854Z,8.90
2017-05-02T20:16:20.589Z,8.90
2017-05-02T20:18:47.742Z,8.80
2017-05-02T20:21:15.313Z,8.80
2017-05-02T20:23:42.454Z,8.80
2017-05-02T20:26:09.621Z,8.70
2017-05-02T20:28:37.914Z,8.60
2017-05-02T20:31:05.060Z,8.70
2017-05-02T20:33:32.936Z,8.50
2017-05-02T20:36:01.075Z,8.50
2017-05-02T20:38:28.099Z,8.70
2017-05-02T20:40:55.120Z,8.60
2017-05-02T20:43:22.521Z,8.60
2017-05-02T20:45:49.586Z,8.60
2017-05-02T20:48:16.970Z,8.70
2017-05-02T20:50:44.668Z,8.60
2017-05-02T20:53:12.802Z,8.60
2017-05-02T20:55:40.724Z,8.50
2017-05-02T20:58:08.060Z,8.60
2017-05-02T21:00:35.057Z,8.60
2017-05-02T21:03:02.039Z,8.50
2017-05-02T21:05:33.670Z,8.40
2017-05-02T21:08:03.991Z,8.40
2017-05-02T21:10:31.167Z,8.40
2017-05-02T21:13:00.057Z,8.30
2017-05-02T21:15:27.005Z,8.30
2017-05-02T21:17:54.000Z,8.40
2017-05-02T21:20:21.425Z,8.30
2017-05-02T21:22:48.404Z,8.40
2017-05-02T21:25:15.428Z,8.50
2017-05-02T21:28:36.009Z,8.50
2017-05-02T21:31:11.893Z,8.50
2017-05-02T21:33:39.176Z,8.50
2017-05-02T21:36:06.173Z,8.60
2017-05-02T21:38:33.185Z,8.50
2017-05-02T21:41:00.620Z,8.50
2017-05-02T21:43:27.632Z,8.50
2017-05-02T21:45:54.636Z,8.50
2017-05-02T21:48:22.137Z,8.70
2017-05-02T21:50:49.160Z,8.50
2017-05-02T21:53:16.176Z,8.40
2017-05-02T21:55:43.496Z,8.50
2017-05-02T21:58:10.497Z,8.40
2017-05-02T22:00:37.483Z,8.50
2017-05-02T22:03:04.813Z,8.60
2017-05-02T22:05:31.866Z,8.60
2017-05-02T22:07:58.855Z,8.70
2017-05-02T22:10:26.975Z,8.70
2017-05-02T22:12:53.968Z,8.70
2017-05-02T22:15:20.979Z,8.80
2017-05-02T22:18:07.098Z,8.80
2017-05-02T22:20:37.144Z,8.80
2017-05-02T22:23:04.150Z,8.80
2017-05-02T22:25:50.136Z,8.90
2017-05-02T22:28:22.600Z,9.00
2017-05-02T22:30:49.712Z,8.80
2017-05-02T22:33:17.232Z,8.80
2017-05-02T22:35:44.247Z,8.90
2017-05-02T22:38:11.251Z,8.90
2017-05-02T22:40:39.302Z,8.90
2017-05-02T22:43:06.350Z,9.10
2017-05-02T22:45:33.356Z,9.20
2017-05-02T22:48:00.707Z,9.00
2017-05-02T22:50:27.708Z,9.10
2017-05-02T22:52:54.704Z,9.20
2017-05-02T22:55:22.181Z,9.20
2017-05-02T22:57:49.181Z,9.20
2017-05-02T23:00:16.207Z,9.20
2017-05-02T23:02:44.365Z,9.20
2017-05-02T23:05:11.378Z,9.20
2017-05-02T23:07:38.368Z,9.10
2017-05-02T23:10:05.807Z,9.30
2017-05-02T23:12:32.813Z,9.20
2017-05-02T23:14:59.819Z,9.30
2017-05-02T23:17:27.165Z,9.30
2017-05-02T23:19:54.219Z,9.20
2017-05-02T23:22:21.261Z,9.30
2017-05-02T23:24:49.431Z,9.20
2017-05-02T23:27:16.448Z,9.30
2017-05-02T23:29:43.531Z,9.30
2017-05-02T23:32:10.900Z,9.40
2017-05-02T23:34:37.937Z,9.40
2017-05-02T23:37:04.920Z,9.30
2017-05-02T23:39:32.326Z,9.40
2017-05-02T23:41:59.327Z,9.30
2017-05-02T23:44:26.332Z,9.30
2017-05-02T23:46:53.692Z,9.30
2017-05-02T23:49:20.771Z,9.30
2017-05-02T23:51:47.997Z,9.30
2017-05-02T23:54:15.341Z,9.50
2017-05-02T23:56:42.333Z,9.40
2017-05-02T23:59:09.389Z,9.30
